Time;durP1;ratioP1;P1;durP2;ratioP2;P2;SDS_P1;SDS_P2;PMS_P1;PMS_P2;Temp;Humidity;BMP_temperature;BMP_pressure;BME280_temperature;BME280_humidity;BME280_pressure;Samples;Min_cycle;Max_cycle;Signal;HPM_P1;HPM_P2
2021/05/12 00:00:13;;;;;;;10.15;4.40;;;;;;;;;;4226476;33;20292;-55
2021/05/12 00:02:39;;;;;;;4.62;3.60;;;;;;;;;;4238084;33;20620;-55
2021/05/12 00:05:08;;;;;;;7.05;3.50;;;;;;;;;;4238625;33;20745;-55
2021/05/12 00:07:34;;;;;;;6.30;3.70;;;;;;;;;;4238584;33;20249;-55
2021/05/12 00:10:01;;;;;;;4.57;2.60;;;;;;;;;;4238448;33;20308;-56
2021/05/12 00:12:26;;;;;;;5.90;3.10;;;;;;;;;;4238156;33;20332;-57
2021/05/12 00:14:54;;;;;;;7.75;3.72;;;;;;;;;;4275927;33;20250;-55
2021/05/12 00:17:20;;;;;;;4.95;3.83;;;;;;;;;;4282080;33;20263;-55
2021/05/12 00:19:59;;;;;;;6.93;3.50;;;;;;;;;;4269295;33;20394;-68
2021/05/12 00:25:07;;;;;;;6.12;3.12;;;;;;;;;;4269001;33;20234;-55
2021/05/12 00:27:35;;;;;;;10.27;3.58;;;;;;;;;;4269135;33;20696;-68
2021/05/12 00:30:09;;;;;;;5.60;3.37;;;;;;;;;;4270282;33;20220;-67
2021/05/12 00:32:35;;;;;;;13.43;3.62;;;;;;;;;;4271684;33;20239;-55
2021/05/12 00:35:02;;;;;;;12.45;3.47;;;;;;;;;;4271607;33;20653;-57
2021/05/12 00:37:37;;;;;;;9.30;3.50;;;;;;;;;;4271547;33;20603;-55
2021/05/12 00:40:11;;;;;;;8.00;3.58;;;;;;;;;;4270882;33;20236;-69
2021/05/12 00:42:44;;;;;;;4.53;3.10;;;;;;;;;;4269705;33;20306;-55
2021/05/12 00:45:21;;;;;;;9.63;3.28;;;;;;;;;;4271791;33;20267;-68
2021/05/12 00:47:50;;;;;;;5.35;3.50;;;;;;;;;;4271783;33;20322;-67
2021/05/12 00:50:18;;;;;;;4.47;3.40;;;;;;;;;;4276349;33;20212;-68
2021/05/12 00:52:44;;;;;;;7.72;3.40;;;;;;;;;;4285557;33;20347;-68
2021/05/12 00:55:13;;;;;;;6.40;3.12;;;;;;;;;;4285902;33;20397;-68
2021/05/12 00:57:42;;;;;;;8.05;3.42;;;;;;;;;;4285862;33;20231;-68
2021/05/12 01:00:11;;;;;;;5.78;2.87;;;;;;;;;;4285867;33;20216;-68
2021/05/12 01:02:55;;;;;;;6.15;3.22;;;;;;;;;;4285424;33;20666;-54
2021/05/12 01:05:44;;;;;;;8.05;3.58;;;;;;;;;;4284562;33;20315;-68
2021/05/12 01:08:09;;;;;;;8.18;4.43;;;;;;;;;;4283921;33;20300;-69
2021/05/12 01:10:35;;;;;;;10.82;3.20;;;;;;;;;;4270176;33;20345;-56
2021/05/12 01:13:02;;;;;;;4.45;3.83;;;;;;;;;;4271270;33;20464;-69
2021/05/12 01:15:28;;;;;;;9.27;3.78;;;;;;;;;;4281018;33;20307;-68
2021/05/12 01:18:10;;;;;;;4.78;2.90;;;;;;;;;;4285436;33;20295;-68
2021/05/12 01:20:59;;;;;;;5.55;3.20;;;;;;;;;;4285818;33;20218;-68
2021/05/12 01:23:28;;;;;;;7.25;3.25;;;;;;;;;;4272007;33;20655;-68
2021/05/12 01:25:55;;;;;;;4.18;3.25;;;;;;;;;;4285315;33;20638;-56
2021/05/12 01:28:23;;;;;;;6.47;3.25;;;;;;;;;;4285304;33;20770;-56
2021/05/12 01:31:16;;;;;;;5.35;3.10;;;;;;;;;;4285668;33;20201;-56
2021/05/12 01:33:42;;;;;;;6.93;3.40;;;;;;;;;;4285272;33;20204;-55
2021/05/12 01:36:10;;;;;;;7.45;4.03;;;;;;;;;;4283923;33;20258;-55
2021/05/12 01:38:38;;;;;;;11.85;3.95;;;;;;;;;;4285124;33;20237;-56
2021/05/12 01:41:05;;;;;;;5.55;3.35;;;;;;;;;;4284393;33;20220;-55
2021/05/12 01:43:32;;;;;;;12.68;3.53;;;;;;;;;;4284994;33;20599;-55
2021/05/12 01:45:59;;;;;;;6.12;2.72;;;;;;;;;;4272153;33;20246;-55
2021/05/12 01:48:25;;;;;;;7.80;3.05;;;;;;;;;;4284995;33;20227;-55
2021/05/12 01:50:51;;;;;;;9.70;3.03;;;;;;;;;;4276668;33;20743;-56
2021/05/12 01:53:17;;;;;;;4.65;3.87;;;;;;;;;;4270447;33;20224;-55
2021/05/12 01:55:45;;;;;;;15.18;4.57;;;;;;;;;;4270466;33;20253;-55
2021/05/12 01:58:10;;;;;;;6.10;3.28;;;;;;;;;;4270605;33;20256;-55
2021/05/12 02:00:40;;;;;;;9.10;3.58;;;;;;;;;;4270599;33;20840;-54
2021/05/12 02:03:09;;;;;;;12.43;3.80;;;;;;;;;;4270284;33;20246;-54
2021/05/12 02:05:36;;;;;;;7.68;3.95;;;;;;;;;;4269159;33;20236;-55
2021/05/12 02:08:05;;;;;;;15.50;3.90;;;;;;;;;;4270409;33;20228;-54
2021/05/12 02:10:31;;;;;;;9.38;3.50;;;;;;;;;;4270327;33;20255;-55
2021/05/12 02:12:57;;;;;;;9.57;3.97;;;;;;;;;;4269048;33;20462;-69
2021/05/12 02:15:24;;;;;;;6.05;3.87;;;;;;;;;;4279861;33;20247;-70
2021/05/12 02:17:50;;;;;;;12.02;4.12;;;;;;;;;;4284838;33;20712;-69
2021/05/12 02:20:20;;;;;;;6.85;3.95;;;;;;;;;;4284844;33;20395;-69
2021/05/12 02:22:45;;;;;;;5.95;3.83;;;;;;;;;;4284534;33;20240;-69
2021/05/12 02:25:11;;;;;;;8.45;5.18;;;;;;;;;;4284473;33;20322;-68
2021/05/12 02:27:37;;;;;;;14.80;4.97;;;;;;;;;;4284717;33;20516;-69
2021/05/12 02:30:05;;;;;;;7.55;4.70;;;;;;;;;;4284666;33;20318;-69
2021/05/12 02:32:30;;;;;;;8.90;5.05;;;;;;;;;;4284208;33;20228;-69
2021/05/12 02:34:57;;;;;;;10.32;4.85;;;;;;;;;;4284487;33;20763;-68
2021/05/12 02:37:24;;;;;;;11.52;5.03;;;;;;;;;;4284299;33;20335;-70
2021/05/12 02:39:50;;;;;;;15.70;4.37;;;;;;;;;;4284639;33;20247;-69
2021/05/12 02:42:16;;;;;;;11.18;3.78;;;;;;;;;;4270968;33;20244;-55
2021/05/12 02:44:42;;;;;;;6.35;3.92;;;;;;;;;;4284311;33;20386;-56
2021/05/12 02:47:12;;;;;;;6.93;3.60;;;;;;;;;;4284293;33;20434;-55
2021/05/12 02:49:39;;;;;;;9.57;3.78;;;;;;;;;;4281831;33;20661;-55
2021/05/12 02:52:05;;;;;;;5.85;3.65;;;;;;;;;;4268200;33;20747;-55
2021/05/12 02:54:31;;;;;;;9.55;3.90;;;;;;;;;;4269826;33;20626;-55
2021/05/12 02:56:57;;;;;;;10.82;3.78;;;;;;;;;;4269865;33;20239;-54
2021/05/12 02:59:23;;;;;;;5.20;3.28;;;;;;;;;;4268422;33;20689;-56
2021/05/12 03:01:49;;;;;;;8.15;3.75;;;;;;;;;;4269471;33;20251;-54
2021/05/12 03:04:15;;;;;;;11.65;4.12;;;;;;;;;;4269460;33;20292;-56
2021/05/12 03:06:40;;;;;;;17.48;4.40;;;;;;;;;;4269407;33;20249;-69
2021/05/12 03:09:07;;;;;;;10.10;4.40;;;;;;;;;;4268542;33;20772;-69
2021/05/12 03:11:33;;;;;;;5.97;3.70;;;;;;;;;;4268399;33;20248;-55
2021/05/12 03:13:58;;;;;;;12.65;4.55;;;;;;;;;;4269449;33;20381;-55
2021/05/12 03:16:24;;;;;;;10.88;4.03;;;;;;;;;;4283658;33;20240;-55
2021/05/12 03:18:51;;;;;;;15.57;4.60;;;;;;;;;;4283757;33;20758;-56
2021/05/12 03:21:16;;;;;;;10.30;4.07;;;;;;;;;;4283423;33;20221;-56
2021/05/12 03:23:43;;;;;;;13.88;4.18;;;;;;;;;;4284017;33;20662;-57
2021/05/12 03:26:09;;;;;;;11.23;4.72;;;;;;;;;;4283373;33;20282;-56
2021/05/12 03:28:35;;;;;;;11.75;3.75;;;;;;;;;;4283888;33;20331;-57
2021/05/12 03:31:00;;;;;;;5.03;3.72;;;;;;;;;;4283753;33;20279;-70
2021/05/12 03:33:26;;;;;;;8.85;4.47;;;;;;;;;;4283678;33;20349;-70
2021/05/12 03:35:52;;;;;;;13.27;4.97;;;;;;;;;;4283378;33;20299;-69
2021/05/12 03:38:18;;;;;;;8.57;4.37;;;;;;;;;;4283637;33;20371;-55
2021/05/12 03:40:43;;;;;;;6.87;4.18;;;;;;;;;;4283601;33;20723;-65
2021/05/12 03:43:11;;;;;;;10.32;4.82;;;;;;;;;;4282278;33;20227;-54
2021/05/12 03:45:36;;;;;;;11.80;6.07;;;;;;;;;;4282323;33;20224;-68
2021/05/12 03:48:04;;;;;;;10.73;5.05;;;;;;;;;;4282356;33;20278;-69
2021/05/12 03:50:30;;;;;;;15.93;5.32;;;;;;;;;;4276980;33;20261;-69
2021/05/12 03:52:57;;;;;;;11.05;4.82;;;;;;;;;;4268685;33;20635;-54
2021/05/12 03:55:24;;;;;;;18.33;5.43;;;;;;;;;;4267888;33;20333;-55
2021/05/12 03:57:51;;;;;;;10.00;5.75;;;;;;;;;;4269151;33;20216;-55
2021/05/12 04:00:17;;;;;;;13.27;5.75;;;;;;;;;;4255990;33;20233;-55
2021/05/12 04:02:43;;;;;;;15.98;6.32;;;;;;;;;;4267573;33;20295;-55
2021/05/12 04:05:11;;;;;;;20.00;6.50;;;;;;;;;;4272112;33;20212;-55
2021/05/12 04:07:37;;;;;;;16.02;4.65;;;;;;;;;;4272762;33;20229;-55
2021/05/12 04:10:08;;;;;;;9.38;4.37;;;;;;;;;;4274076;33;20326;-55
2021/05/12 04:12:34;;;;;;;11.02;4.30;;;;;;;;;;4273960;33;20255;-55
2021/05/12 04:15:00;;;;;;;15.25;5.60;;;;;;;;;;4281181;33;20219;-70
2021/05/12 04:17:27;;;;;;;10.93;5.35;;;;;;;;;;4273930;33;20329;-70
2021/05/12 04:19:54;;;;;;;15.13;4.82;;;;;;;;;;4287270;33;20287;-56
2021/05/12 04:22:20;;;;;;;13.25;4.50;;;;;;;;;;4287813;33;20246;-55
2021/05/12 04:24:46;;;;;;;13.93;4.47;;;;;;;;;;4286792;33;20310;-56
2021/05/12 04:27:12;;;;;;;10.82;4.60;;;;;;;;;;4288223;33;20400;-70
2021/05/12 04:29:38;;;;;;;9.77;4.72;;;;;;;;;;4286865;33;20733;-69
2021/05/12 04:32:05;;;;;;;11.98;4.60;;;;;;;;;;4287863;33;20235;-69
2021/05/12 04:34:31;;;;;;;18.05;5.32;;;;;;;;;;4288173;33;20604;-69
2021/05/12 04:36:57;;;;;;;9.43;5.43;;;;;;;;;;4287785;33;20228;-70
2021/05/12 04:39:22;;;;;;;9.63;4.55;;;;;;;;;;4288019;33;20642;-68
2021/05/12 04:41:49;;;;;;;15.15;5.30;;;;;;;;;;4286841;33;20258;-70
2021/05/12 04:44:15;;;;;;;12.13;5.45;;;;;;;;;;4287991;33;20679;-69
2021/05/12 04:46:43;;;;;;;30.20;6.03;;;;;;;;;;4286646;33;20258;-69
2021/05/12 04:49:09;;;;;;;13.80;5.37;;;;;;;;;;4288116;33;20227;-70
2021/05/12 04:51:35;;;;;;;12.13;4.65;;;;;;;;;;4274852;33;20571;-70
2021/05/12 04:54:05;;;;;;;16.77;5.40;;;;;;;;;;4273541;33;20275;-69
2021/05/12 04:56:32;;;;;;;11.07;4.35;;;;;;;;;;4273286;33;20232;-69
2021/05/12 04:58:58;;;;;;;14.75;4.93;;;;;;;;;;4271956;33;20295;-56
2021/05/12 05:01:24;;;;;;;10.88;4.65;;;;;;;;;;4271798;33;20454;-56
2021/05/12 05:03:50;;;;;;;14.30;5.15;;;;;;;;;;4273086;33;20301;-57
2021/05/12 05:06:16;;;;;;;20.12;5.55;;;;;;;;;;4271979;33;20312;-56
2021/05/12 05:08:44;;;;;;;10.35;4.50;;;;;;;;;;4273603;33;20359;-56
2021/05/12 05:11:10;;;;;;;18.10;5.10;;;;;;;;;;4273083;33;20846;-55
2021/05/12 05:13:36;;;;;;;9.10;4.32;;;;;;;;;;4273288;33;20279;-56
2021/05/12 05:16:02;;;;;;;9.52;3.80;;;;;;;;;;4284542;33;20342;-56
2021/05/12 05:18:28;;;;;;;8.80;3.83;;;;;;;;;;4279170;33;20363;-68
2021/05/12 05:20:55;;;;;;;9.85;3.30;;;;;;;;;;4271124;33;20283;-67
2021/05/12 05:23:20;;;;;;;15.07;3.85;;;;;;;;;;4271078;33;20244;-69
2021/05/12 05:25:46;;;;;;;5.50;3.47;;;;;;;;;;4269870;33;20321;-68
2021/05/12 05:28:13;;;;;;;7.10;4.62;;;;;;;;;;4270907;33;20627;-68
2021/05/12 05:30:38;;;;;;;8.02;4.55;;;;;;;;;;4270804;33;20306;-67
2021/05/12 05:33:04;;;;;;;16.37;5.22;;;;;;;;;;4270653;33;20220;-69
2021/05/12 05:35:30;;;;;;;9.80;4.43;;;;;;;;;;4270763;33;20291;-69
2021/05/12 05:37:55;;;;;;;11.88;4.05;;;;;;;;;;4270739;33;20247;-69
2021/05/12 05:40:22;;;;;;;14.45;4.95;;;;;;;;;;4269531;33;20360;-67
2021/05/12 05:42:57;;;;;;;10.02;5.15;;;;;;;;;;4269338;33;20327;-56
2021/05/12 05:45:24;;;;;;;9.93;4.90;;;;;;;;;;4269426;33;20258;-69
2021/05/12 05:47:50;;;;;;;13.18;4.65;;;;;;;;;;4255075;33;20255;-69
2021/05/12 05:50:15;;;;;;;13.68;5.07;;;;;;;;;;4275270;33;20299;-68
2021/05/12 05:52:41;;;;;;;13.45;5.10;;;;;;;;;;4283824;33;20223;-67
2021/05/12 05:55:07;;;;;;;9.13;4.97;;;;;;;;;;4284788;33;20701;-70
2021/05/12 05:57:34;;;;;;;8.00;4.70;;;;;;;;;;4284556;33;20236;-69
2021/05/12 05:59:59;;;;;;;14.95;5.20;;;;;;;;;;4271465;33;20279;-70
2021/05/12 06:02:25;;;;;;;13.80;6.10;;;;;;;;;;4284569;33;20259;-71
2021/05/12 06:04:51;;;;;;;14.07;5.55;;;;;;;;;;4284885;33;20641;-69
2021/05/12 06:07:17;;;;;;;13.70;6.37;;;;;;;;;;4280652;33;20363;-69
2021/05/12 06:09:42;;;;;;;13.73;5.05;;;;;;;;;;4270225;33;20626;-68
2021/05/12 06:12:08;;;;;;;16.62;5.40;;;;;;;;;;4280907;33;20248;-70
2021/05/12 06:14:34;;;;;;;13.38;4.65;;;;;;;;;;4270474;33;20688;-69
2021/05/12 06:16:59;;;;;;;14.40;5.15;;;;;;;;;;4270209;33;20281;-70
2021/05/12 06:19:25;;;;;;;8.38;4.80;;;;;;;;;;4281170;33;20622;-70
2021/05/12 06:21:51;;;;;;;14.00;4.47;;;;;;;;;;4284640;33;20377;-69
2021/05/12 06:24:17;;;;;;;12.65;5.57;;;;;;;;;;4283106;33;20268;-68
2021/05/12 06:26:46;;;;;;;10.43;4.40;;;;;;;;;;4268203;33;20260;-72
2021/05/12 06:29:19;;;;;;;15.75;4.53;;;;;;;;;;4269776;33;20228;-55
2021/05/12 06:32:07;;;;;;;7.32;4.28;;;;;;;;;;4270104;33;20228;-55
2021/05/12 06:34:34;;;;;;;11.12;4.30;;;;;;;;;;4270424;33;20220;-70
2021/05/12 06:37:00;;;;;;;8.85;4.65;;;;;;;;;;4269965;33;20300;-70
2021/05/12 06:39:25;;;;;;;8.25;4.75;;;;;;;;;;4270362;33;20271;-69
2021/05/12 06:41:53;;;;;;;16.08;4.87;;;;;;;;;;4270314;33;20239;-70
2021/05/12 06:44:21;;;;;;;16.10;4.70;;;;;;;;;;4255995;33;20225;-56
2021/05/12 06:46:46;;;;;;;12.37;4.22;;;;;;;;;;4256333;33;20299;-57
2021/05/12 06:49:12;;;;;;;16.02;4.53;;;;;;;;;;4256031;33;20739;-56
2021/05/12 06:51:38;;;;;;;11.80;4.07;;;;;;;;;;4281525;33;20535;-69
2021/05/12 06:54:04;;;;;;;12.63;3.87;;;;;;;;;;4283518;33;20611;-70
2021/05/12 06:56:30;;;;;;;7.50;3.80;;;;;;;;;;4284264;33;20240;-69
2021/05/12 06:58:56;;;;;;;4.05;2.87;;;;;;;;;;4284621;33;20297;-69
2021/05/12 07:01:21;;;;;;;14.60;3.53;;;;;;;;;;4270200;33;20208;-70
2021/05/12 07:03:48;;;;;;;14.90;3.62;;;;;;;;;;4269959;33;20275;-69
2021/05/12 07:06:13;;;;;;;9.20;3.42;;;;;;;;;;4269897;33;20302;-70
2021/05/12 07:08:39;;;;;;;11.00;3.75;;;;;;;;;;4269725;33;20268;-69
2021/05/12 07:11:05;;;;;;;11.90;4.03;;;;;;;;;;4269735;33;20330;-71
2021/05/12 07:13:31;;;;;;;7.90;3.70;;;;;;;;;;4268251;33;20311;-69
2021/05/12 07:15:57;;;;;;;11.52;4.45;;;;;;;;;;4279619;33;20319;-70
2021/05/12 07:18:22;;;;;;;6.43;2.92;;;;;;;;;;4284266;33;20334;-70
2021/05/12 07:20:48;;;;;;;13.93;3.85;;;;;;;;;;4283720;33;20298;-72
2021/05/12 07:23:22;;;;;;;8.23;3.60;;;;;;;;;;4283688;33;20251;-56
2021/05/12 07:25:49;;;;;;;12.73;4.07;;;;;;;;;;4281586;33;20693;-55
2021/05/12 07:28:15;;;;;;;7.00;3.53;;;;;;;;;;4269107;33;20326;-56
2021/05/12 07:30:42;;;;;;;9.85;3.62;;;;;;;;;;4269072;33;20275;-56
2021/05/12 07:33:08;;;;;;;9.43;3.17;;;;;;;;;;4269420;33;20303;-56
2021/05/12 07:35:34;;;;;;;14.25;3.67;;;;;;;;;;4282800;33;20661;-56
2021/05/12 07:37:59;;;;;;;11.65;3.50;;;;;;;;;;4283015;33;20262;-56
2021/05/12 07:40:34;;;;;;;13.40;3.35;;;;;;;;;;4282858;33;20350;-55
2021/05/12 07:43:11;;;;;;;20.88;3.85;;;;;;;;;;4283303;33;20555;-69
2021/05/12 07:45:39;;;;;;;6.20;2.67;;;;;;;;;;4281703;33;20303;-56
2021/05/12 07:48:14;;;;;;;14.40;4.00;;;;;;;;;;4283054;33;20236;-56
2021/05/12 07:50:54;;;;;;;5.57;3.35;;;;;;;;;;4274969;33;20208;-56
2021/05/12 07:53:28;;;;;;;7.12;3.70;;;;;;;;;;4266378;33;20274;-56
2021/05/12 07:56:00;;;;;;;10.20;3.37;;;;;;;;;;4254969;33;20705;-69
2021/05/12 07:58:26;;;;;;;12.20;3.67;;;;;;;;;;4267571;33;20266;-56
2021/05/12 08:00:52;;;;;;;8.48;3.55;;;;;;;;;;4268556;33;20642;-55
2021/05/12 08:03:18;;;;;;;11.00;4.00;;;;;;;;;;4269131;33;20820;-57
2021/05/12 08:05:43;;;;;;;14.93;4.53;;;;;;;;;;4269207;33;20275;-58
2021/05/12 08:08:09;;;;;;;5.65;3.00;;;;;;;;;;4269204;33;20250;-55
2021/05/12 08:10:35;;;;;;;22.45;3.80;;;;;;;;;;4269362;33;20342;-55
2021/05/12 08:13:01;;;;;;;9.88;3.58;;;;;;;;;;4268402;33;20642;-55
2021/05/12 08:15:26;;;;;;;8.82;3.95;;;;;;;;;;4268819;33;20272;-54
2021/05/12 08:17:53;;;;;;;6.20;3.70;;;;;;;;;;4268073;33;20240;-54
2021/05/12 08:20:19;;;;;;;15.52;3.40;;;;;;;;;;4266521;33;20259;-63
2021/05/12 08:22:44;;;;;;;7.25;3.17;;;;;;;;;;4268420;33;20259;-65
2021/05/12 08:25:10;;;;;;;9.38;3.80;;;;;;;;;;4268908;33;20649;-65
2021/05/12 08:27:36;;;;;;;4.05;3.37;;;;;;;;;;4268175;33;20224;-65
2021/05/12 08:30:03;;;;;;;7.50;3.33;;;;;;;;;;4267412;33;20784;-64
2021/05/12 08:32:28;;;;;;;12.35;3.87;;;;;;;;;;4269079;33;20599;-64
2021/05/12 08:34:58;;;;;;;9.02;3.60;;;;;;;;;;4268768;33;20306;-63
2021/05/12 08:37:26;;;;;;;11.43;3.62;;;;;;;;;;4266471;33;20254;-66
2021/05/12 08:39:52;;;;;;;8.65;3.60;;;;;;;;;;4274273;33;20610;-57
2021/05/12 08:42:18;;;;;;;14.18;3.78;;;;;;;;;;4273880;33;20307;-55
2021/05/12 08:44:48;;;;;;;14.48;3.58;;;;;;;;;;4274797;33;20225;-55
2021/05/12 08:47:16;;;;;;;17.30;5.55;;;;;;;;;;4273949;33;20247;-65
2021/05/12 08:49:43;;;;;;;12.65;4.22;;;;;;;;;;4277921;33;20617;-64
2021/05/12 08:52:10;;;;;;;11.82;4.87;;;;;;;;;;4267652;33;20283;-63
2021/05/12 08:54:43;;;;;;;11.23;4.75;;;;;;;;;;4265217;33;20260;-66
2021/05/12 08:57:11;;;;;;;8.32;4.07;;;;;;;;;;4244408;33;20696;-55
2021/05/12 08:59:42;;;;;;;8.40;3.42;;;;;;;;;;4257023;33;20260;-65
2021/05/12 09:02:08;;;;;;;9.13;3.53;;;;;;;;;;4257010;33;20389;-55
2021/05/12 09:04:33;;;;;;;10.18;3.65;;;;;;;;;;4268084;33;20442;-53
2021/05/12 09:06:59;;;;;;;12.25;3.58;;;;;;;;;;4257540;33;20258;-54
2021/05/12 09:09:31;;;;;;;8.27;3.37;;;;;;;;;;4267388;33;20313;-55
2021/05/12 09:12:00;;;;;;;17.02;4.03;;;;;;;;;;4264841;33;20289;-55
2021/05/12 09:14:33;;;;;;;23.70;4.37;;;;;;;;;;4260635;33;20329;-64
2021/05/12 09:16:59;;;;;;;7.68;3.60;;;;;;;;;;4271257;33;20255;-64
2021/05/12 09:19:25;;;;;;;8.13;4.20;;;;;;;;;;4248123;33;20362;-64
2021/05/12 09:21:51;;;;;;;9.23;3.78;;;;;;;;;;4270835;33;20284;-57
2021/05/12 09:24:34;;;;;;;14.75;4.55;;;;;;;;;;4271055;33;20291;-55
2021/05/12 09:27:03;;;;;;;6.57;3.42;;;;;;;;;;4282000;33;20638;-55
2021/05/12 09:29:41;;;;;;;4.35;3.20;;;;;;;;;;4271463;33;20216;-55
2021/05/12 09:32:11;;;;;;;10.82;3.35;;;;;;;;;;4259063;33;20236;-66
2021/05/12 09:35:03;;;;;;;7.18;3.00;;;;;;;;;;4271020;33;20220;-55
2021/05/12 09:37:42;;;;;;;9.85;3.30;;;;;;;;;;4269706;33;20338;-54
2021/05/12 09:40:21;;;;;;;8.00;3.67;;;;;;;;;;4271186;33;20285;-55
2021/05/12 09:43:00;;;;;;;7.87;3.35;;;;;;;;;;4270804;33;20224;-54
2021/05/12 09:45:27;;;;;;;4.70;3.22;;;;;;;;;;4285925;33;20292;-54
2021/05/12 09:47:58;;;;;;;9.10;3.33;;;;;;;;;;4285386;33;20254;-54
2021/05/12 09:50:29;;;;;;;11.43;3.37;;;;;;;;;;4279295;33;20275;-54
2021/05/12 09:52:57;;;;;;;5.05;3.15;;;;;;;;;;4270587;33;20263;-55
2021/05/12 09:55:36;;;;;;;10.40;3.62;;;;;;;;;;4269878;33;20205;-55
2021/05/12 09:58:04;;;;;;;9.43;4.65;;;;;;;;;;4257245;33;20277;-54
2021/05/12 10:00:31;;;;;;;11.23;3.28;;;;;;;;;;4270553;33;20212;-55
2021/05/12 10:02:58;;;;;;;15.95;4.00;;;;;;;;;;4270235;33;20224;-54
2021/05/12 10:05:26;;;;;;;10.20;3.03;;;;;;;;;;4269893;33;20228;-54
2021/05/12 10:07:53;;;;;;;11.25;3.75;;;;;;;;;;4270218;33;20243;-54
2021/05/12 10:10:45;;;;;;;12.02;3.40;;;;;;;;;;4270590;33;20251;-54
2021/05/12 10:13:14;;;;;;;3.17;2.60;;;;;;;;;;4271239;33;20327;-54
2021/05/12 10:15:46;;;;;;;6.75;2.90;;;;;;;;;;4269392;33;20228;-54
2021/05/12 10:18:12;;;;;;;10.60;3.17;;;;;;;;;;4274275;33;20236;-54
2021/05/12 10:20:41;;;;;;;12.02;3.47;;;;;;;;;;4284860;33;20716;-55
2021/05/12 10:23:10;;;;;;;7.57;3.40;;;;;;;;;;4284984;33;20318;-64
2021/05/12 10:25:39;;;;;;;3.40;2.22;;;;;;;;;;4283885;33;20831;-64
2021/05/12 10:28:07;;;;;;;6.10;2.45;;;;;;;;;;4284804;33;20258;-65
2021/05/12 10:30:34;;;;;;;5.60;2.53;;;;;;;;;;4285186;33;20230;-64
2021/05/12 10:32:59;;;;;;;6.22;3.25;;;;;;;;;;4285006;33;20658;-65
2021/05/12 10:35:39;;;;;;;5.25;3.45;;;;;;;;;;4283427;33;20378;-64
2021/05/12 10:38:28;;;;;;;11.45;2.97;;;;;;;;;;4285128;33;20220;-64
2021/05/12 10:40:54;;;;;;;6.50;2.95;;;;;;;;;;4284957;33;20200;-64
2021/05/12 10:45:52;;;;;;;13.30;2.40;;;;;;;;;;4280262;33;20264;-64
2021/05/12 10:48:48;;;;;;;5.30;2.53;;;;;;;;;;4284507;33;20386;-65
2021/05/12 10:51:19;;;;;;;16.37;3.30;;;;;;;;;;4272808;33;20616;-66
2021/05/12 10:53:50;;;;;;;5.03;2.95;;;;;;;;;;4270342;33;20349;-65
2021/05/12 10:56:17;;;;;;;5.35;2.80;;;;;;;;;;4269982;33;20192;-67
2021/05/12 10:58:45;;;;;;;8.30;2.55;;;;;;;;;;4256957;33;20662;-64
2021/05/12 11:01:12;;;;;;;4.95;3.00;;;;;;;;;;4270087;33;20283;-64
2021/05/12 11:03:52;;;;;;;8.38;3.95;;;;;;;;;;4270104;33;20553;-63
2021/05/12 11:06:19;;;;;;;4.05;2.87;;;;;;;;;;4268846;33;20311;-64
2021/05/12 11:09:06;;;;;;;5.20;3.37;;;;;;;;;;4257081;33;20224;-62
2021/05/12 11:11:52;;;;;;;11.10;3.50;;;;;;;;;;4269969;33;20224;-53
2021/05/12 11:14:26;;;;;;;12.05;2.90;;;;;;;;;;4269222;33;20363;-54
2021/05/12 11:17:12;;;;;;;5.85;3.28;;;;;;;;;;4269523;33;20228;-54
2021/05/12 11:22:32;;;;;;;7.35;2.50;;;;;;;;;;4284001;33;20408;-54
2021/05/12 11:25:12;;;;;;;12.85;3.60;;;;;;;;;;4284229;33;20264;-54
2021/05/12 11:33:29;;;;;;;6.80;2.55;;;;;;;;;;4284355;33;20243;-54
2021/05/12 11:36:11;;;;;;;12.18;3.22;;;;;;;;;;4282990;33;20554;-55
2021/05/12 11:38:38;;;;;;;6.40;2.90;;;;;;;;;;4284178;33;20553;-55
2021/05/12 11:41:10;;;;;;;9.35;2.85;;;;;;;;;;4284176;33;20299;-55
2021/05/12 11:43:45;;;;;;;5.87;2.40;;;;;;;;;;4284001;33;20795;-54
2021/05/12 11:46:11;;;;;;;9.68;3.37;;;;;;;;;;4279527;33;20303;-54
2021/05/12 11:48:45;;;;;;;13.20;2.85;;;;;;;;;;4282670;33;20322;-54
2021/05/12 11:51:15;;;;;;;4.75;2.65;;;;;;;;;;4273338;33;20724;-55
2021/05/12 11:53:43;;;;;;;3.33;2.15;;;;;;;;;;4269355;33;20250;-54
2021/05/12 11:56:08;;;;;;;6.47;2.30;;;;;;;;;;4267556;33;20308;-55
2021/05/12 11:58:37;;;;;;;4.05;2.30;;;;;;;;;;4268161;33;20310;-55
2021/05/12 12:01:08;;;;;;;5.85;2.55;;;;;;;;;;4267348;33;20208;-55
2021/05/12 12:03:39;;;;;;;4.28;1.90;;;;;;;;;;4266892;33;20254;-54
2021/05/12 12:06:05;;;;;;;3.85;2.03;;;;;;;;;;4267711;33;20196;-54
2021/05/12 12:08:32;;;;;;;5.53;1.83;;;;;;;;;;4267385;33;20756;-56
2021/05/12 12:11:09;;;;;;;7.75;2.90;;;;;;;;;;4267914;33;20713;-54
2021/05/12 12:13:36;;;;;;;4.12;1.90;;;;;;;;;;4268520;33;20187;-54
2021/05/12 12:16:02;;;;;;;4.72;2.12;;;;;;;;;;4269362;33;20282;-54
2021/05/12 12:18:41;;;;;;;15.43;2.30;;;;;;;;;;4274582;33;20291;-55
2021/05/12 12:21:08;;;;;;;8.50;2.28;;;;;;;;;;4270853;33;20676;-55
2021/05/12 12:23:36;;;;;;;6.43;1.80;;;;;;;;;;4257044;33;20193;-54
2021/05/12 12:26:23;;;;;;;23.40;6.20;;;;;;;;;;4269202;33;20208;-55
2021/05/12 12:28:53;;;;;;;8.05;2.50;;;;;;;;;;4272230;33;20641;-55
2021/05/12 12:31:27;;;;;;;12.95;2.87;;;;;;;;;;4272240;33;20207;-54
2021/05/12 12:34:20;;;;;;;8.68;2.25;;;;;;;;;;4272416;33;20303;-55
2021/05/12 12:37:02;;;;;;;16.40;2.75;;;;;;;;;;4282893;33;20326;-55
2021/05/12 12:39:56;;;;;;;5.00;2.60;;;;;;;;;;4272217;33;20275;-55
2021/05/12 12:42:22;;;;;;;9.90;2.45;;;;;;;;;;4272443;33;20322;-54
2021/05/12 12:44:49;;;;;;;5.32;2.33;;;;;;;;;;4272882;33;20327;-56
2021/05/12 12:47:19;;;;;;;5.78;1.98;;;;;;;;;;4286444;33;20225;-55
2021/05/12 12:49:55;;;;;;;6.47;2.20;;;;;;;;;;4284653;33;20201;-55
2021/05/12 12:52:30;;;;;;;4.90;2.05;;;;;;;;;;4282883;33;20634;-55
2021/05/12 12:55:04;;;;;;;3.95;2.22;;;;;;;;;;4271784;33;20282;-55
2021/05/12 12:58:03;;;;;;;11.48;2.62;;;;;;;;;;4271597;33;20240;-55
2021/05/12 13:00:30;;;;;;;5.12;2.30;;;;;;;;;;4271999;33;20280;-54
2021/05/12 13:03:06;;;;;;;7.47;2.35;;;;;;;;;;4271780;33;20539;-55
2021/05/12 13:05:32;;;;;;;8.85;2.30;;;;;;;;;;4270317;33;20219;-56
2021/05/12 13:08:22;;;;;;;4.80;2.00;;;;;;;;;;4271665;33;20366;-56
2021/05/12 13:10:50;;;;;;;15.75;2.45;;;;;;;;;;4271792;33;20291;-56
2021/05/12 13:13:31;;;;;;;10.60;2.90;;;;;;;;;;4282646;33;20670;-63
2021/05/12 13:15:58;;;;;;;7.72;2.10;;;;;;;;;;4270269;33;20374;-62
2021/05/12 13:18:33;;;;;;;5.90;1.95;;;;;;;;;;4267100;33;20259;-64
2021/05/12 13:21:02;;;;;;;3.42;1.80;;;;;;;;;;4279271;33;20232;-63
2021/05/12 13:23:32;;;;;;;8.60;2.62;;;;;;;;;;4271579;33;20287;-63
2021/05/12 13:26:00;;;;;;;3.62;1.77;;;;;;;;;;4271827;33;20320;-64
2021/05/12 13:28:30;;;;;;;7.60;1.80;;;;;;;;;;4271649;33;20339;-64
2021/05/12 13:30:57;;;;;;;3.72;2.20;;;;;;;;;;4271620;33;20224;-64
2021/05/12 13:33:25;;;;;;;4.65;2.58;;;;;;;;;;4271097;33;20338;-55
2021/05/12 13:35:56;;;;;;;6.18;1.98;;;;;;;;;;4271283;33;20230;-55
2021/05/12 13:38:22;;;;;;;5.75;2.28;;;;;;;;;;4270705;33;20232;-55
2021/05/12 13:40:49;;;;;;;8.38;2.78;;;;;;;;;;4271409;33;20317;-56
2021/05/12 13:43:15;;;;;;;9.40;2.47;;;;;;;;;;4270823;33;20292;-54
2021/05/12 13:45:40;;;;;;;10.02;2.65;;;;;;;;;;4276649;33;20283;-56
2021/05/12 13:48:09;;;;;;;9.77;2.60;;;;;;;;;;4285502;33;20295;-56
2021/05/12 13:50:35;;;;;;;10.35;2.53;;;;;;;;;;4270936;33;20233;-55
2021/05/12 13:55:36;;;;;;;2.90;2.10;;;;;;;;;;4257517;33;20280;-56
2021/05/12 13:58:25;;;;;;;12.93;1.85;;;;;;;;;;4257224;33;20282;-55
2021/05/12 14:03:31;;;;;;;7.68;2.62;;;;;;;;;;4257225;33;20220;-56
2021/05/12 14:05:57;;;;;;;8.75;2.50;;;;;;;;;;4257079;33;20276;-56
2021/05/12 14:08:22;;;;;;;14.93;2.30;;;;;;;;;;4256152;33;20221;-56
2021/05/12 14:10:48;;;;;;;10.23;2.58;;;;;;;;;;4267100;33;20315;-55
2021/05/12 14:13:19;;;;;;;10.35;2.85;;;;;;;;;;4256978;33;20566;-55
2021/05/12 14:18:30;;;;;;;16.95;2.47;;;;;;;;;;4275970;33;20311;-56
2021/05/12 14:20:56;;;;;;;10.55;1.85;;;;;;;;;;4281204;33;20639;-57
2021/05/12 14:23:22;;;;;;;3.95;1.80;;;;;;;;;;4270023;33;20213;-56
2021/05/12 14:25:47;;;;;;;7.37;2.00;;;;;;;;;;4281488;33;20307;-57
2021/05/12 14:28:13;;;;;;;5.37;1.60;;;;;;;;;;4270432;33;20689;-56
2021/05/12 14:30:41;;;;;;;5.25;1.92;;;;;;;;;;4271125;33;20272;-57
2021/05/12 14:33:07;;;;;;;3.30;1.55;;;;;;;;;;4270567;33;20284;-57
2021/05/12 14:35:33;;;;;;;3.65;1.80;;;;;;;;;;4270581;33;20221;-57
2021/05/12 14:38:00;;;;;;;10.45;2.95;;;;;;;;;;4270618;33;20599;-57
2021/05/12 14:40:27;;;;;;;6.97;1.42;;;;;;;;;;4270828;33;20260;-57
2021/05/12 14:42:53;;;;;;;4.30;2.37;;;;;;;;;;4271057;33;20396;-56
2021/05/12 14:45:18;;;;;;;9.93;2.45;;;;;;;;;;4274272;33;20302;-57
2021/05/12 14:47:44;;;;;;;10.18;1.90;;;;;;;;;;4285081;33;20224;-56
2021/05/12 14:50:12;;;;;;;9.70;2.33;;;;;;;;;;4280766;33;20693;-58
2021/05/12 14:52:45;;;;;;;3.75;1.85;;;;;;;;;;4270664;33;20670;-56
2021/05/12 14:55:27;;;;;;;9.40;1.70;;;;;;;;;;4270786;33;20279;-56
2021/05/12 15:06:06;;;;;;;4.28;2.20;;;;;;;;;;4270419;33;20271;-56
2021/05/12 15:08:31;;;;;;;12.23;2.35;;;;;;;;;;4270481;33;20559;-57
2021/05/12 15:10:57;;;;;;;5.87;2.00;;;;;;;;;;4270357;33;20290;-57
2021/05/12 15:13:23;;;;;;;7.68;1.90;;;;;;;;;;4257535;33;20228;-56
2021/05/12 15:15:49;;;;;;;9.98;2.10;;;;;;;;;;4269798;33;20250;-58
2021/05/12 15:18:14;;;;;;;8.10;2.40;;;;;;;;;;4266191;33;20221;-56